Time;durP1;ratioP1;P1;durP2;ratioP2;P2;SDS_P1;SDS_P2;PMS_P1;PMS_P2;Temp;Humidity;BMP_temperature;BMP_pressure;BME280_temperature;BME280_humidity;BME280_pressure;Samples;Min_cycle;Max_cycle;Signal;HPM_P1;HPM_P2
2022/07/06 00:01:23;;;;;;;2.72;0.60;;;16.30;99.90;;;;;;5034956;28;20036;-82
2022/07/06 00:03:49;;;;;;;2.25;0.60;;;16.20;99.90;;;;;;5051136;28;20490;-80
2022/07/06 00:06:16;;;;;;;4.13;0.85;;;16.20;99.90;;;;;;5043818;28;20044;-82
2022/07/06 00:08:43;;;;;;;3.63;0.60;;;16.20;99.90;;;;;;5029016;28;20051;-81
2022/07/06 00:11:09;;;;;;;3.00;0.60;;;16.30;99.90;;;;;;5043468;28;20419;-81
2022/07/06 00:13:35;;;;;;;2.42;0.80;;;16.20;99.90;;;;;;5051798;28;20048;-82
2022/07/06 00:16:01;;;;;;;2.65;0.70;;;16.30;99.90;;;;;;5061048;28;20047;-81
2022/07/06 00:18:27;;;;;;;2.97;1.00;;;16.30;99.90;;;;;;5062022;28;20502;-81
2022/07/06 00:20:52;;;;;;;2.92;0.50;;;16.30;99.90;;;;;;5080691;28;20236;-82
2022/07/06 00:23:18;;;;;;;3.38;0.60;;;16.30;99.90;;;;;;5044001;28;20137;-81
2022/07/06 00:25:44;;;;;;;2.25;0.70;;;16.30;99.90;;;;;;5044535;28;20051;-82
2022/07/06 00:28:10;;;;;;;3.83;0.90;;;16.30;99.90;;;;;;5030414;28;20044;-81
2022/07/06 00:30:36;;;;;;;1.77;0.45;;;16.20;99.90;;;;;;5044334;28;20086;-82
2022/07/06 00:33:02;;;;;;;3.88;0.70;;;16.20;99.90;;;;;;5034760;28;20118;-81
2022/07/06 00:35:28;;;;;;;3.65;0.82;;;16.20;99.90;;;;;;5049202;28;20044;-80
2022/07/06 00:37:54;;;;;;;4.15;0.80;;;16.20;99.90;;;;;;5044034;28;20040;-82
2022/07/06 00:40:20;;;;;;;2.63;0.70;;;16.20;99.90;;;;;;5035469;28;20507;-82
2022/07/06 00:42:48;;;;;;;7.50;0.93;;;16.20;99.90;;;;;;5046478;28;20040;-82
2022/07/06 00:45:15;;;;;;;3.80;0.75;;;16.20;99.90;;;;;;5034765;28;20086;-82
2022/07/06 00:47:42;;;;;;;4.13;0.73;;;16.20;99.90;;;;;;5058863;28;20119;-82
2022/07/06 00:50:22;;;;;;;2.03;0.68;;;16.20;99.90;;;;;;5059710;28;20493;-81
2022/07/06 00:52:55;;;;;;;1.88;0.70;;;16.20;99.90;;;;;;5028290;28;20040;-82
2022/07/06 00:55:29;;;;;;;2.88;0.80;;;16.20;99.90;;;;;;5060812;28;20101;-82
2022/07/06 00:57:56;;;;;;;2.33;0.70;;;16.20;99.90;;;;;;5060951;28;20082;-82
2022/07/06 01:00:24;;;;;;;2.05;0.63;;;16.20;99.90;;;;;;5026968;28;20123;-81
2022/07/06 01:02:51;;;;;;;1.83;0.60;;;16.20;99.90;;;;;;5060116;28;20082;-82
2022/07/06 01:05:18;;;;;;;2.90;0.60;;;16.20;99.90;;;;;;5045062;28;20570;-82
2022/07/06 01:07:46;;;;;;;0.75;0.60;;;16.20;99.90;;;;;;5044182;28;21978;-80
2022/07/06 01:10:13;;;;;;;3.83;0.80;;;16.20;99.90;;;;;;5044975;28;20048;-80
2022/07/06 01:12:41;;;;;;;2.80;0.63;;;16.20;99.90;;;;;;5051387;28;20123;-80
2022/07/06 01:15:09;;;;;;;1.23;0.60;;;16.10;99.90;;;;;;5045042;28;20040;-80
2022/07/06 01:17:36;;;;;;;3.33;0.73;;;16.10;99.90;;;;;;5060079;28;20117;-80
2022/07/06 01:20:22;;;;;;;2.28;0.90;;;16.10;99.90;;;;;;5059600;28;20050;-80
2022/07/06 01:22:50;;;;;;;4.80;1.00;;;16.10;99.90;;;;;;5059220;28;20426;-80
2022/07/06 01:25:16;;;;;;;2.85;0.90;;;16.10;99.90;;;;;;5060125;28;20044;-80
2022/07/06 01:27:43;;;;;;;2.72;0.80;;;16.10;99.90;;;;;;5059681;28;20067;-81
2022/07/06 01:30:11;;;;;;;2.58;1.02;;;16.10;99.90;;;;;;5043172;28;20075;-80
2022/07/06 01:32:38;;;;;;;5.53;0.80;;;16.10;99.90;;;;;;5051222;28;20044;-79
2022/07/06 01:35:06;;;;;;;2.33;1.10;;;16.10;99.90;;;;;;5033903;28;20048;-80
2022/07/06 01:37:32;;;;;;;4.18;0.80;;;16.10;99.90;;;;;;5034557;28;20044;-80
2022/07/06 01:39:59;;;;;;;3.30;0.93;;;16.00;99.90;;;;;;5044800;28;20377;-80
2022/07/06 01:42:26;;;;;;;3.33;1.25;;;16.10;99.90;;;;;;5042874;28;20067;-80
2022/07/06 01:44:52;;;;;;;2.85;0.82;;;16.10;99.90;;;;;;5048760;28;20055;-80
2022/07/06 01:47:18;;;;;;;3.35;0.73;;;16.10;99.90;;;;;;5032463;28;20449;-79
2022/07/06 01:49:44;;;;;;;4.22;0.90;;;16.10;99.90;;;;;;5049561;28;20051;-79
2022/07/06 01:52:09;;;;;;;3.28;0.90;;;16.10;99.90;;;;;;5043594;28;20533;-80
2022/07/06 01:54:35;;;;;;;4.63;0.80;;;16.00;99.90;;;;;;5059464;28;20110;-80
2022/07/06 01:57:01;;;;;;;4.22;1.17;;;16.00;99.90;;;;;;5059811;28;20051;-80
2022/07/06 01:59:27;;;;;;;1.55;0.70;;;16.00;99.90;;;;;;5029124;28;20075;-80
2022/07/06 02:01:52;;;;;;;3.30;0.80;;;16.00;99.90;;;;;;5043161;28;20496;-80
2022/07/06 02:04:18;;;;;;;1.75;0.93;;;16.00;99.90;;;;;;5043952;28;20048;-81
2022/07/06 02:06:44;;;;;;;2.92;0.80;;;16.00;99.90;;;;;;5044955;28;20048;-80
2022/07/06 02:09:09;;;;;;;3.50;1.10;;;16.00;99.90;;;;;;5033853;28;20058;-81
2022/07/06 02:11:35;;;;;;;5.72;1.10;;;15.90;99.90;;;;;;5025793;28;20497;-81
2022/07/06 02:14:01;;;;;;;3.30;0.90;;;15.90;99.90;;;;;;5059127;28;20048;-81
2022/07/06 02:16:26;;;;;;;3.58;0.90;;;15.90;99.90;;;;;;5043477;28;20499;-80
2022/07/06 02:18:52;;;;;;;4.50;1.50;;;15.90;99.90;;;;;;5027339;28;20097;-80
2022/07/06 02:21:18;;;;;;;3.65;0.80;;;15.90;99.90;;;;;;5043366;28;20044;-81
2022/07/06 02:23:44;;;;;;;3.95;0.77;;;15.80;99.90;;;;;;5032711;28;20082;-81
2022/07/06 02:26:09;;;;;;;3.38;0.88;;;15.80;99.90;;;;;;5032983;28;20104;-80
2022/07/06 02:28:35;;;;;;;2.92;0.68;;;15.80;99.90;;;;;;5044648;28;20040;-80
2022/07/06 02:31:01;;;;;;;2.72;0.70;;;15.80;99.90;;;;;;5049578;28;20068;-80
2022/07/06 02:33:27;;;;;;;5.45;0.82;;;15.70;99.90;;;;;;5059666;28;20117;-80
2022/07/06 02:35:53;;;;;;;2.72;0.70;;;15.70;99.90;;;;;;5049133;28;20043;-80
2022/07/06 02:38:18;;;;;;;3.15;0.80;;;15.70;99.90;;;;;;5059825;28;20071;-81
2022/07/06 02:40:44;;;;;;;3.67;0.90;;;15.70;99.90;;;;;;5045763;28;20130;-80
2022/07/06 02:43:10;;;;;;;6.15;0.80;;;15.60;99.90;;;;;;5022050;28;20048;-80
2022/07/06 02:45:36;;;;;;;3.33;0.80;;;15.50;99.90;;;;;;5046463;28;20040;-79
2022/07/06 02:48:02;;;;;;;3.75;0.70;;;15.50;99.90;;;;;;5054803;28;20087;-80
2022/07/06 02:50:27;;;;;;;3.65;0.70;;;15.50;99.90;;;;;;5045609;28;20071;-81
2022/07/06 02:52:54;;;;;;;2.45;0.90;;;15.40;99.90;;;;;;5045895;28;20044;-80
2022/07/06 02:55:20;;;;;;;2.15;0.65;;;15.40;99.90;;;;;;5047361;28;20465;-81
2022/07/06 02:57:46;;;;;;;3.10;0.65;;;15.50;99.90;;;;;;5036890;28;20048;-81
2022/07/06 03:00:12;;;;;;;4.75;1.25;;;15.30;99.90;;;;;;5045777;28;20471;-81
2022/07/06 03:02:38;;;;;;;1.83;0.60;;;15.30;99.90;;;;;;5045689;28;20051;-81
2022/07/06 03:05:04;;;;;;;4.38;0.77;;;15.20;99.90;;;;;;5062743;28;20047;-81
2022/07/06 03:07:30;;;;;;;2.80;0.77;;;15.20;99.90;;;;;;5037586;28;20526;-81
2022/07/06 03:09:56;;;;;;;3.60;0.73;;;15.20;99.90;;;;;;5062662;28;20102;-81
2022/07/06 03:12:21;;;;;;;2.20;0.70;;;15.20;99.90;;;;;;5047716;28;20059;-81
2022/07/06 03:14:47;;;;;;;1.80;0.60;;;15.10;99.90;;;;;;5054814;28;20555;-81
2022/07/06 03:17:13;;;;;;;3.55;0.60;;;15.10;99.90;;;;;;5039182;28;20036;-81
2022/07/06 03:19:39;;;;;;;2.45;0.65;;;15.10;99.90;;;;;;5047113;28;20043;-81
2022/07/06 03:22:05;;;;;;;2.60;0.90;;;15.10;99.90;;;;;;5048739;28;20041;-81
2022/07/06 03:24:30;;;;;;;4.70;0.70;;;15.10;99.90;;;;;;5048059;28;20085;-81
2022/07/06 03:26:56;;;;;;;4.88;0.73;;;15.10;99.90;;;;;;5031525;28;20043;-81
2022/07/06 03:29:22;;;;;;;2.58;0.70;;;15.00;99.90;;;;;;5056314;28;20036;-79
2022/07/06 03:31:48;;;;;;;2.08;0.60;;;15.10;99.90;;;;;;5071674;28;20063;-80
2022/07/06 03:34:14;;;;;;;2.88;0.70;;;15.00;99.90;;;;;;5054832;28;20048;-81
2022/07/06 03:36:40;;;;;;;5.10;0.77;;;15.00;99.90;;;;;;5053782;28;20403;-81
2022/07/06 03:39:06;;;;;;;1.70;0.60;;;15.00;99.90;;;;;;5047572;28;20047;-80
2022/07/06 03:41:32;;;;;;;3.55;0.95;;;15.00;99.90;;;;;;5030265;28;20771;-81
2022/07/06 03:43:58;;;;;;;2.72;0.80;;;15.00;99.90;;;;;;5046505;28;20137;-81
2022/07/06 03:46:24;;;;;;;1.88;0.70;;;15.10;99.90;;;;;;5063266;28;20091;-81
2022/07/06 03:48:49;;;;;;;2.17;0.70;;;15.10;99.90;;;;;;5029954;28;20487;-81
2022/07/06 03:51:15;;;;;;;3.28;0.85;;;15.10;99.90;;;;;;5030748;28;20055;-80
2022/07/06 03:53:41;;;;;;;3.97;0.63;;;15.20;99.90;;;;;;5045600;28;20459;-81
2022/07/06 03:58:51;;;;;;;2.22;0.60;;;15.20;99.90;;;;;;5049326;28;20045;-80
2022/07/06 04:01:17;;;;;;;3.20;0.90;;;15.20;99.90;;;;;;5030385;28;20402;-80
2022/07/06 04:03:44;;;;;;;2.08;0.70;;;15.30;99.90;;;;;;5045851;28;20476;-80
2022/07/06 04:06:10;;;;;;;2.45;0.60;;;15.30;99.90;;;;;;5062661;28;20070;-81
2022/07/06 04:08:35;;;;;;;1.00;0.60;;;15.30;99.90;;;;;;5063165;28;20052;-80
2022/07/06 04:11:01;;;;;;;3.38;0.63;;;15.40;99.90;;;;;;5029055;28;20056;-80
2022/07/06 04:13:27;;;;;;;3.78;0.90;;;15.40;99.90;;;;;;5037780;28;20053;-80
2022/07/06 04:15:53;;;;;;;1.58;0.50;;;15.40;99.90;;;;;;5034289;28;20058;-80
2022/07/06 04:18:19;;;;;;;1.95;0.77;;;15.40;99.90;;;;;;5029522;28;20036;-80
2022/07/06 04:20:44;;;;;;;1.77;0.63;;;15.40;99.90;;;;;;5046020;28;20078;-81
2022/07/06 04:23:10;;;;;;;2.63;0.65;;;15.50;99.90;;;;;;5063005;28;20059;-81
2022/07/06 04:25:36;;;;;;;3.67;0.70;;;15.50;99.90;;;;;;5053505;28;20458;-81
2022/07/06 04:28:01;;;;;;;2.55;0.70;;;15.50;99.90;;;;;;5045399;28;20477;-81
2022/07/06 04:30:27;;;;;;;2.72;0.60;;;15.50;99.90;;;;;;5045528;28;20040;-81
2022/07/06 04:32:53;;;;;;;2.28;0.73;;;15.50;99.90;;;;;;5029740;28;20049;-81
2022/07/06 04:35:19;;;;;;;1.83;0.60;;;15.60;99.90;;;;;;5029173;28;20048;-81
2022/07/06 04:37:47;;;;;;;2.25;0.80;;;15.60;99.90;;;;;;5030170;28;20048;-81
2022/07/06 04:40:14;;;;;;;2.15;0.70;;;15.60;99.90;;;;;;5014956;28;20127;-81
2022/07/06 04:42:40;;;;;;;1.65;0.70;;;15.60;99.90;;;;;;5062273;28;20037;-81
2022/07/06 04:45:06;;;;;;;1.88;0.70;;;15.60;99.90;;;;;;5036475;28;20067;-82
2022/07/06 04:47:32;;;;;;;2.80;0.88;;;15.70;99.90;;;;;;5045622;28;20048;-81
2022/07/06 04:49:58;;;;;;;2.00;0.63;;;15.70;99.90;;;;;;5051936;28;20040;-81
2022/07/06 04:52:24;;;;;;;3.20;0.80;;;15.60;99.90;;;;;;5062175;28;20082;-82
2022/07/06 04:54:50;;;;;;;1.05;0.50;;;15.60;99.90;;;;;;5028432;28;20417;-81
2022/07/06 04:57:16;;;;;;;2.38;0.60;;;15.60;99.90;;;;;;5045712;28;20052;-82
2022/07/06 04:59:41;;;;;;;4.13;0.82;;;15.60;99.90;;;;;;5052028;28;20047;-82
2022/07/06 05:02:07;;;;;;;2.75;0.98;;;15.60;99.90;;;;;;5020589;28;20044;-81
2022/07/06 05:04:33;;;;;;;1.85;0.60;;;15.60;99.90;;;;;;5050948;28;20048;-81
2022/07/06 05:06:59;;;;;;;3.45;0.50;;;15.60;99.90;;;;;;5044911;28;20119;-81
2022/07/06 05:09:25;;;;;;;3.42;0.70;;;15.60;99.90;;;;;;5028514;28;20542;-82
2022/07/06 05:11:51;;;;;;;1.65;0.50;;;15.70;99.90;;;;;;5045391;28;20068;-81
2022/07/06 05:14:16;;;;;;;2.53;0.70;;;15.70;99.90;;;;;;5035812;28;20138;-81
2022/07/06 05:16:42;;;;;;;1.95;0.60;;;15.70;99.90;;;;;;5049570;28;20044;-83
2022/07/06 05:19:08;;;;;;;1.75;0.63;;;15.80;99.90;;;;;;5069573;28;20040;-83
2022/07/06 05:21:34;;;;;;;3.88;0.90;;;15.90;99.90;;;;;;5058638;28;20511;-84
2022/07/06 05:24:00;;;;;;;2.45;0.60;;;16.20;99.90;;;;;;5062167;28;20055;-84
2022/07/06 05:26:26;;;;;;;2.22;0.80;;;15.90;99.90;;;;;;5028595;28;20048;-81
2022/07/06 05:28:52;;;;;;;2.17;0.70;;;16.00;99.90;;;;;;5044678;28;20048;-83
2022/07/06 05:31:17;;;;;;;4.35;0.70;;;16.00;99.90;;;;;;5045044;28;20094;-85
2022/07/06 05:33:43;;;;;;;2.80;0.80;;;16.00;99.90;;;;;;5049036;28;20112;-86
2022/07/06 05:36:09;;;;;;;1.25;0.60;;;16.10;99.90;;;;;;5052802;28;20055;-83
2022/07/06 05:38:35;;;;;;;3.35;0.70;;;16.10;99.90;;;;;;5035656;28;20060;-82
2022/07/06 05:41:01;;;;;;;2.08;0.70;;;16.20;99.90;;;;;;5034323;28;20601;-84
2022/07/06 05:43:26;;;;;;;4.70;0.80;;;16.30;99.90;;;;;;5028145;28;20045;-83
2022/07/06 05:45:52;;;;;;;1.25;0.50;;;16.40;99.90;;;;;;5042797;28;20121;-83
2022/07/06 05:51:02;;;;;;;3.72;0.70;;;16.40;99.90;;;;;;5062366;28;20056;-84
2022/07/06 05:53:28;;;;;;;1.83;0.65;;;16.40;99.90;;;;;;5045534;28;20494;-83
2022/07/06 05:55:53;;;;;;;1.25;0.40;;;16.50;99.90;;;;;;5051671;28;20055;-83
2022/07/06 05:58:19;;;;;;;4.43;0.75;;;16.60;99.90;;;;;;5029046;28;20139;-83
2022/07/06 06:00:45;;;;;;;1.67;0.63;;;16.70;99.90;;;;;;5028084;28;20053;-84
2022/07/06 06:03:11;;;;;;;1.75;0.65;;;16.70;99.90;;;;;;5043743;28;20036;-83
2022/07/06 06:05:37;;;;;;;4.70;0.73;;;16.70;99.90;;;;;;5052050;28;20051;-85
2022/07/06 06:08:03;;;;;;;4.38;1.55;;;16.80;99.90;;;;;;5044786;28;20087;-84
2022/07/06 06:10:28;;;;;;;2.28;0.70;;;16.80;99.90;;;;;;5031048;28;20462;-84
2022/07/06 06:12:54;;;;;;;3.15;0.70;;;17.00;99.90;;;;;;5044725;28;20063;-84
2022/07/06 06:15:20;;;;;;;2.97;0.70;;;17.10;99.90;;;;;;5030700;28;20507;-84
2022/07/06 06:17:46;;;;;;;1.75;0.50;;;17.20;99.90;;;;;;5029236;28;20043;-84
2022/07/06 06:20:15;;;;;;;3.15;0.75;;;17.30;99.90;;;;;;5027381;28;20132;-87
2022/07/06 06:22:48;;;;;;;1.08;0.50;;;17.30;99.90;;;;;;5048266;28;20059;-83
2022/07/06 06:25:20;;;;;;;3.45;0.65;;;17.40;99.90;;;;;;5063007;28;20052;-85
2022/07/06 06:27:46;;;;;;;4.15;0.60;;;17.60;99.90;;;;;;5061651;28;20044;-83
2022/07/06 06:30:12;;;;;;;3.63;0.85;;;17.60;99.90;;;;;;5028280;28;20048;-85
2022/07/06 06:32:38;;;;;;;2.25;0.80;;;17.80;99.90;;;;;;5033442;28;20048;-86
2022/07/06 06:35:05;;;;;;;1.33;0.50;;;17.80;99.90;;;;;;5056200;28;20096;-86
2022/07/06 06:37:31;;;;;;;2.42;0.50;;;17.80;99.90;;;;;;5055953;28;20063;-86
2022/07/06 06:39:57;;;;;;;1.98;0.70;;;17.90;99.90;;;;;;5034029;28;20043;-85
2022/07/06 06:42:23;;;;;;;2.38;0.70;;;18.00;99.90;;;;;;5035002;28;20059;-86
2022/07/06 06:44:49;;;;;;;2.58;0.70;;;18.10;99.90;;;;;;5035817;28;20101;-85
2022/07/06 06:47:14;;;;;;;1.90;0.68;;;18.10;99.90;;;;;;5028147;28;20036;-86
2022/07/06 06:49:40;;;;;;;3.17;0.70;;;18.10;99.90;;;;;;5043348;28;20056;-82
2022/07/06 06:52:06;;;;;;;2.55;0.60;;;18.20;99.90;;;;;;5027111;28;20050;-86
2022/07/06 06:54:32;;;;;;;3.22;0.80;;;18.30;99.90;;;;;;5035315;28;20777;-85
2022/07/06 06:56:58;;;;;;;2.13;0.60;;;18.40;99.90;;;;;;5060421;28;20784;-86
2022/07/06 06:59:23;;;;;;;2.65;0.60;;;18.40;99.90;;;;;;5043870;28;20049;-85
2022/07/06 07:01:49;;;;;;;2.72;0.70;;;18.30;99.90;;;;;;5043842;28;20037;-85
2022/07/06 07:04:15;;;;;;;3.70;0.80;;;18.40;99.90;;;;;;5043510;28;20056;-85
2022/07/06 07:06:40;;;;;;;2.38;0.75;;;18.40;99.90;;;;;;5044214;28;20044;-87
2022/07/06 07:09:06;;;;;;;3.30;0.63;;;18.50;99.90;;;;;;5059789;28;20095;-85
2022/07/06 07:11:32;;;;;;;1.85;0.57;;;18.40;99.90;;;;;;5059797;28;20165;-85
2022/07/06 07:14:00;;;;;;;2.13;0.65;;;18.40;99.90;;;;;;5041857;28;20079;-84
2022/07/06 07:16:26;;;;;;;2.28;0.60;;;18.50;99.90;;;;;;5044119;28;20148;-86
2022/07/06 07:18:52;;;;;;;2.42;0.70;;;18.60;99.90;;;;;;5061319;28;20051;-84
2022/07/06 07:21:18;;;;;;;2.70;0.77;;;18.90;99.90;;;;;;5028171;28;20040;-86
2022/07/06 07:23:43;;;;;;;5.68;0.70;;;19.20;99.90;;;;;;5034574;28;20388;-86
2022/07/06 07:26:09;;;;;;;1.75;0.60;;;19.40;99.90;;;;;;5060498;28;20059;-84
2022/07/06 07:28:35;;;;;;;4.55;0.70;;;19.60;99.90;;;;;;5052818;28;20045;-85
2022/07/06 07:31:01;;;;;;;2.45;0.60;;;19.80;99.90;;;;;;5030273;28;20044;-84
2022/07/06 07:33:26;;;;;;;4.03;0.60;;;20.00;99.90;;;;;;5030764;28;20071;-84
2022/07/06 07:35:52;;;;;;;2.70;0.93;;;19.90;99.90;;;;;;5054522;28;20056;-85
2022/07/06 07:38:18;;;;;;;2.92;0.60;;;19.90;99.90;;;;;;5063295;28;20045;-84
2022/07/06 07:40:44;;;;;;;2.15;0.68;;;20.10;99.90;;;;;;5037942;28;20063;-85
2022/07/06 07:43:09;;;;;;;4.05;0.80;;;20.30;99.90;;;;;;5063524;28;20105;-85
2022/07/06 07:45:35;;;;;;;3.63;0.70;;;20.40;99.90;;;;;;5030582;28;20040;-84
2022/07/06 07:48:01;;;;;;;1.67;0.50;;;20.10;99.90;;;;;;5045991;28;20084;-85
2022/07/06 07:50:29;;;;;;;3.95;0.68;;;19.70;99.90;;;;;;5047903;28;20078;-84
2022/07/06 07:52:55;;;;;;;1.17;0.52;;;19.40;99.90;;;;;;5053767;28;20055;-85
2022/07/06 07:55:21;;;;;;;4.93;0.65;;;19.20;99.90;;;;;;5055394;28;20078;-84
2022/07/06 07:57:46;;;;;;;3.08;0.90;;;19.20;99.90;;;;;;5038043;28;20039;-84
2022/07/06 08:00:13;;;;;;;1.85;0.50;;;19.40;99.90;;;;;;5046419;28;20877;-85
2022/07/06 08:02:39;;;;;;;1.75;0.63;;;19.70;99.90;;;;;;5047290;28;20054;-84
2022/07/06 08:05:05;;;;;;;1.15;0.57;;;19.80;99.90;;;;;;5053783;28;20044;-85
2022/07/06 08:07:31;;;;;;;1.83;0.55;;;20.00;99.90;;;;;;5046568;28;20053;-84
2022/07/06 08:09:57;;;;;;;2.83;0.80;;;20.10;99.90;;;;;;5054183;28;20130;-85
2022/07/06 08:12:23;;;;;;;4.53;0.90;;;20.20;99.90;;;;;;5053512;28;20051;-84
2022/07/06 08:14:48;;;;;;;2.90;0.70;;;20.30;99.90;;;;;;5047529;28;20063;-84
2022/07/06 08:17:14;;;;;;;2.58;0.70;;;20.40;99.90;;;;;;5046060;28;20036;-85
2022/07/06 08:19:42;;;;;;;2.20;0.68;;;20.30;99.90;;;;;;5046105;28;20109;-85
2022/07/06 08:22:11;;;;;;;2.45;0.60;;;20.30;99.90;;;;;;5062270;28;20040;-85
2022/07/06 08:24:37;;;;;;;2.78;0.47;;;19.80;99.90;;;;;;5052607;28;20048;-89
2022/07/06 08:27:03;;;;;;;1.73;0.50;;;20.00;99.90;;;;;;5054317;28;20059;-91
2022/07/06 08:29:30;;;;;;;2.85;0.63;;;20.30;99.90;;;;;;5046769;28;20158;-86
2022/07/06 08:31:56;;;;;;;1.75;0.68;;;20.40;99.90;;;;;;5050209;28;20525;-85
2022/07/06 08:34:22;;;;;;;1.90;0.60;;;20.70;99.90;;;;;;5070452;28;20484;-88
2022/07/06 08:36:49;;;;;;;2.88;0.50;;;20.70;99.90;;;;;;5032446;28;20487;-87
2022/07/06 08:39:15;;;;;;;2.10;0.60;;;20.80;99.90;;;;;;5034924;28;20048;-87
2022/07/06 08:41:43;;;;;;;1.75;0.50;;;20.80;99.90;;;;;;5045445;28;20077;-86
2022/07/06 08:44:09;;;;;;;1.58;0.68;;;20.80;99.90;;;;;;5046867;28;20058;-86
2022/07/06 08:46:37;;;;;;;1.48;0.40;;;20.70;99.90;;;;;;5046655;28;20039;-87
2022/07/06 08:49:05;;;;;;;1.30;0.45;;;20.80;99.90;;;;;;5064170;28;20044;-84
2022/07/06 08:51:31;;;;;;;1.80;0.52;;;21.00;99.90;;;;;;5054483;28;20594;-86
2022/07/06 08:53:58;;;;;;;6.68;0.60;;;21.00;99.90;;;;;;5035998;28;20048;-84
2022/07/06 08:56:25;;;;;;;0.85;0.50;;;21.00;99.90;;;;;;5038183;28;20048;-85
2022/07/06 08:58:51;;;;;;;2.45;0.50;;;21.20;99.90;;;;;;5060646;28;20040;-84
2022/07/06 09:01:18;;;;;;;1.38;0.50;;;20.90;99.90;;;;;;5078131;28;20131;-84
2022/07/06 09:03:48;;;;;;;2.38;0.50;;;20.90;99.90;;;;;;5063977;28;20123;-85
2022/07/06 09:06:19;;;;;;;1.45;0.30;;;20.90;99.90;;;;;;5052802;28;20497;-81
2022/07/06 09:08:46;;;;;;;2.05;0.50;;;21.00;99.90;;;;;;5046917;28;20119;-84
2022/07/06 09:11:12;;;;;;;3.35;0.60;;;21.00;99.90;;;;;;5068924;28;20056;-84
2022/07/06 09:13:38;;;;;;;3.20;0.55;;;21.00;99.90;;;;;;5046576;28;20048;-86
2022/07/06 09:16:15;;;;;;;1.25;0.47;;;21.10;99.90;;;;;;5046962;28;20094;-85
2022/07/06 09:18:44;;;;;;;3.83;0.50;;;21.30;99.90;;;;;;5061397;28;20044;-83
2022/07/06 09:21:11;;;;;;;2.58;0.60;;;21.50;99.90;;;;;;5046100;28;20101;-84
2022/07/06 09:23:37;;;;;;;1.15;0.50;;;21.40;99.80;;;;;;5054336;28;20486;-85
2022/07/06 09:26:07;;;;;;;1.52;0.52;;;21.40;99.90;;;;;;5062497;28;20051;-86
2022/07/06 09:28:45;;;;;;;2.05;0.68;;;21.10;99.90;;;;;;5049858;28;20074;-85
2022/07/06 09:31:11;;;;;;;3.22;0.60;;;21.40;99.90;;;;;;5047582;28;20040;-83
2022/07/06 09:33:38;;;;;;;2.03;0.40;;;20.90;99.90;;;;;;5067726;28;20044;-83
2022/07/06 09:36:05;;;;;;;1.85;0.70;;;21.20;99.90;;;;;;5065776;28;20044;-82
2022/07/06 09:38:31;;;;;;;1.40;0.60;;;21.10;99.90;;;;;;5052909;28;20577;-87
2022/07/06 09:40:57;;;;;;;2.72;0.60;;;21.20;99.90;;;;;;5054513;28;20483;-87
2022/07/06 09:43:24;;;;;;;3.60;0.57;;;21.10;99.90;;;;;;5029826;28;20185;-86
2022/07/06 09:45:52;;;;;;;3.00;1.02;;;21.20;99.90;;;;;;5053657;28;20056;-89
2022/07/06 09:48:25;;;;;;;3.50;0.57;;;21.40;99.90;;;;;;5059695;28;20403;-85
2022/07/06 09:50:55;;;;;;;1.50;0.57;;;21.70;99.90;;;;;;5046404;28;20040;-87
2022/07/06 09:53:24;;;;;;;1.42;0.60;;;21.90;99.40;;;;;;5052467;28;20071;-83
2022/07/06 09:56:01;;;;;;;1.65;0.60;;;22.10;99.40;;;;;;5044728;28;20080;-87
2022/07/06 09:58:28;;;;;;;1.88;0.57;;;22.10;99.00;;;;;;5051655;28;20095;-84
2022/07/06 10:00:54;;;;;;;1.13;0.57;;;21.70;98.80;;;;;;5043344;28;20040;-84
2022/07/06 10:03:20;;;;;;;1.98;0.70;;;21.70;98.90;;;;;;5060143;28;20048;-84
2022/07/06 10:05:48;;;;;;;3.22;0.60;;;22.20;98.80;;;;;;5060156;28;20407;-85
2022/07/06 10:08:15;;;;;;;1.27;0.50;;;22.00;98.20;;;;;;5051684;28;20487;-84
2022/07/06 10:10:42;;;;;;;1.83;0.50;;;22.20;98.10;;;;;;5043059;28;20110;-82
2022/07/06 10:13:09;;;;;;;1.55;0.50;;;22.30;97.80;;;;;;5060438;28;20056;-85
2022/07/06 10:15:38;;;;;;;2.30;0.40;;;22.40;97.70;;;;;;5051975;28;20071;-81
2022/07/06 10:18:07;;;;;;;0.95;0.52;;;22.40;97.50;;;;;;5061172;28;20525;-82
2022/07/06 10:20:36;;;;;;;0.93;0.50;;;22.40;97.60;;;;;;5043869;28;20059;-81
2022/07/06 10:23:04;;;;;;;0.95;0.40;;;22.30;97.10;;;;;;5035085;28;20129;-81
2022/07/06 10:25:32;;;;;;;0.77;0.40;;;22.20;96.80;;;;;;5042647;28;20578;-82
2022/07/06 10:27:59;;;;;;;2.05;0.60;;;22.20;96.60;;;;;;5058685;28;20045;-82
2022/07/06 10:30:25;;;;;;;1.23;0.50;;;22.20;96.60;;;;;;5042617;28;20040;-84
2022/07/06 10:32:52;;;;;;;2.60;0.70;;;22.20;96.60;;;;;;5059746;28;20478;-82
2022/07/06 10:35:18;;;;;;;2.85;0.60;;;22.10;96.70;;;;;;5042989;28;20063;-82
2022/07/06 10:37:45;;;;;;;0.68;0.30;;;22.30;96.50;;;;;;5032322;28;20743;-84
2022/07/06 10:43:00;;;;;;;0.85;0.25;;;22.70;96.10;;;;;;5060224;28;20130;-87
2022/07/06 10:45:29;;;;;;;1.83;0.77;;;22.80;95.30;;;;;;5061352;28;20056;-90
2022/07/06 10:48:15;;;;;;;0.77;0.43;;;23.10;95.00;;;;;;5045138;28;20075;-87
2022/07/06 10:50:52;;;;;;;1.50;0.65;;;23.30;94.30;;;;;;5055754;28;20077;-84
2022/07/06 10:53:26;;;;;;;1.58;0.40;;;23.30;94.40;;;;;;5059922;28;20055;-89
2022/07/06 10:55:54;;;;;;;2.22;0.70;;;23.30;93.90;;;;;;5053099;28;20518;-87
2022/07/06 10:58:46;;;;;;;1.50;0.45;;;23.10;93.50;;;;;;5044821;28;20044;-88
2022/07/06 11:01:13;;;;;;;0.90;0.50;;;23.30;93.50;;;;;;5051373;28;20067;-90
2022/07/06 11:03:45;;;;;;;2.45;1.02;;;23.30;94.20;;;;;;5054388;28;20063;-89
2022/07/06 11:06:15;;;;;;;2.03;0.52;;;23.30;93.60;;;;;;5065335;28;20155;-85
2022/07/06 11:08:51;;;;;;;2.92;0.80;;;23.20;93.60;;;;;;5062431;28;20051;-85
2022/07/06 11:11:20;;;;;;;1.38;0.50;;;23.10;93.60;;;;;;5052814;28;20068;-86
2022/07/06 11:13:49;;;;;;;1.20;0.40;;;23.30;93.60;;;;;;5055515;28;20593;-87
2022/07/06 11:16:20;;;;;;;3.22;0.60;;;23.40;93.30;;;;;;5061976;28;20050;-88
2022/07/06 11:18:49;;;;;;;3.22;0.65;;;23.70;93.30;;;;;;5048298;28;20127;-87
2022/07/06 11:21:34;;;;;;;2.20;0.43;;;23.90;93.00;;;;;;5053675;28;20044;-86
2022/07/06 11:24:00;;;;;;;1.95;0.50;;;24.00;92.70;;;;;;5054865;28;20131;-87
2022/07/06 11:26:27;;;;;;;2.22;0.60;;;23.90;92.30;;;;;;5063906;28;20104;-87
2022/07/06 11:28:53;;;;;;;0.98;0.50;;;24.00;91.90;;;;;;5053630;28;20044;-87
2022/07/06 11:31:19;;;;;;;1.45;0.55;;;24.10;91.50;;;;;;5064598;28;20121;-86
2022/07/06 11:33:46;;;;;;;1.48;0.52;;;24.10;90.90;;;;;;5054520;28;20052;-87
2022/07/06 11:36:21;;;;;;;3.00;0.50;;;24.20;90.30;;;;;;5063096;28;20044;-85
2022/07/06 11:38:48;;;;;;;1.75;0.55;;;24.10;88.40;;;;;;5037928;28;20036;-86
2022/07/06 11:41:16;;;;;;;1.45;0.55;;;24.00;89.00;;;;;;5045862;28;20109;-86
2022/07/06 11:43:44;;;;;;;1.60;0.60;;;23.70;89.10;;;;;;5047992;28;20074;-86
2022/07/06 11:46:22;;;;;;;1.80;0.57;;;23.50;89.70;;;;;;5047811;28;20050;-87
2022/07/06 11:48:55;;;;;;;4.75;0.70;;;23.20;89.20;;;;;;5054329;28;20044;-86
2022/07/06 11:51:23;;;;;;;3.38;0.60;;;22.80;90.30;;;;;;5062098;28;20056;-86
2022/07/06 11:53:59;;;;;;;3.92;0.73;;;22.60;90.80;;;;;;5063587;28;20080;-87
2022/07/06 11:56:26;;;;;;;1.73;0.68;;;22.30;90.50;;;;;;5049002;28;20567;-88
2022/07/06 11:58:57;;;;;;;2.17;0.80;;;22.30;91.10;;;;;;5047248;28;20075;-88
2022/07/06 12:01:26;;;;;;;3.30;0.77;;;22.20;92.00;;;;;;5065027;28;20047;-84
2022/07/06 12:03:52;;;;;;;2.78;0.73;;;22.10;93.00;;;;;;5037191;28;20048;-84
2022/07/06 12:06:23;;;;;;;3.92;0.68;;;21.90;93.70;;;;;;5053765;28;20049;-84
2022/07/06 12:08:50;;;;;;;4.45;1.05;;;21.70;94.30;;;;;;5046909;28;20064;-84
2022/07/06 12:11:21;;;;;;;2.85;0.80;;;21.60;94.90;;;;;;5043892;28;20071;-82
2022/07/06 12:13:50;;;;;;;3.28;0.93;;;21.70;95.40;;;;;;5062433;28;20093;-86
2022/07/06 12:16:16;;;;;;;3.92;1.27;;;21.70;96.10;;;;;;5045195;28;20415;-84
2022/07/06 12:18:43;;;;;;;4.95;0.77;;;21.60;96.40;;;;;;5046096;28;20040;-84
2022/07/06 12:21:16;;;;;;;3.08;0.98;;;21.60;96.60;;;;;;5061726;28;20062;-83
2022/07/06 12:23:43;;;;;;;1.75;0.65;;;21.60;96.90;;;;;;5054062;28;20506;-83
2022/07/06 12:26:10;;;;;;;2.85;0.77;;;21.50;97.00;;;;;;5048612;28;20048;-83
2022/07/06 12:28:36;;;;;;;3.22;1.00;;;21.30;97.30;;;;;;5054011;28;20053;-84
2022/07/06 12:31:02;;;;;;;4.30;0.98;;;20.70;97.50;;;;;;5066168;28;20079;-83
2022/07/06 12:33:28;;;;;;;3.95;0.80;;;20.60;97.70;;;;;;5053116;28;20135;-83
2022/07/06 12:35:55;;;;;;;5.65;0.90;;;20.60;98.10;;;;;;5062787;28;20128;-83
2022/07/06 12:38:27;;;;;;;3.42;0.80;;;20.50;98.30;;;;;;5045511;28;20049;-83
2022/07/06 12:40:53;;;;;;;3.88;0.88;;;20.50;98.80;;;;;;5045609;28;20051;-83
2022/07/06 12:43:39;;;;;;;2.72;0.88;;;20.30;99.10;;;;;;5045386;28;20185;-83
2022/07/06 12:46:35;;;;;;;;;;;20.30;99.30;;;;;;5080133;28;20064;-83
2022/07/06 12:49:12;;;;;;;3.30;0.82;;;20.80;99.30;;;;;;5033402;28;19931;-83
2022/07/06 12:51:50;;;;;;;2.38;0.90;;;20.20;99.40;;;;;;5052961;28;20419;-83
2022/07/06 12:54:16;;;;;;;2.55;0.70;;;20.10;99.10;;;;;;5062122;28;20070;-83
2022/07/06 12:57:23;;;;;;;1.98;0.68;;;20.10;99.30;;;;;;5045190;28;20040;-83